sensor_id;sensor_type;location;lat;lon;timestamp;P1;durP1;ratioP1;P2;durP2;ratioP2
68523;SDS011;55524;51.380;13.372;2023-02-11T00:00:37;43.92;;;16.67;;
68523;SDS011;55524;51.380;13.372;2023-02-11T00:03:05;39.45;;;16.27;;
68523;SDS011;55524;51.380;13.372;2023-02-11T00:05:31;39.47;;;15.23;;
68523;SDS011;55524;51.380;13.372;2023-02-11T00:07:58;41.47;;;14.98;;
68523;SDS011;55524;51.380;13.372;2023-02-11T00:10:24;42.13;;;15.48;;
68523;SDS011;55524;51.380;13.372;2023-02-11T00:12:51;38.58;;;14.98;;
68523;SDS011;55524;51.380;13.372;2023-02-11T00:15:17;38.08;;;14.50;;
68523;SDS011;55524;51.380;13.372;2023-02-11T00:17:45;39.03;;;15.77;;
68523;SDS011;55524;51.380;13.372;2023-02-11T00:20:11;37.40;;;14.52;;
68523;SDS011;55524;51.380;13.372;2023-02-11T00:22:37;36.88;;;14.30;;
68523;SDS011;55524;51.380;13.372;2023-02-11T00:25:03;34.22;;;13.82;;
68523;SDS011;55524;51.380;13.372;2023-02-11T00:27:30;38.17;;;14.45;;
68523;SDS011;55524;51.380;13.372;2023-02-11T00:29:56;40.72;;;13.95;;
68523;SDS011;55524;51.380;13.372;2023-02-11T00:32:24;34.47;;;14.18;;
68523;SDS011;55524;51.380;13.372;2023-02-11T00:34:51;37.88;;;14.73;;
68523;SDS011;55524;51.380;13.372;2023-02-11T00:37:19;42.72;;;14.52;;
68523;SDS011;55524;51.380;13.372;2023-02-11T00:39:45;38.83;;;14.35;;
68523;SDS011;55524;51.380;13.372;2023-02-11T00:42:13;37.72;;;14.63;;
68523;SDS011;55524;51.380;13.372;2023-02-11T00:44:40;33.42;;;13.65;;
68523;SDS011;55524;51.380;13.372;2023-02-11T00:47:06;35.83;;;14.50;;
68523;SDS011;55524;51.380;13.372;2023-02-11T00:49:32;38.65;;;14.55;;
68523;SDS011;55524;51.380;13.372;2023-02-11T00:51:58;36.92;;;14.32;;
68523;SDS011;55524;51.380;13.372;2023-02-11T00:54:25;36.15;;;14.35;;
68523;SDS011;55524;51.380;13.372;2023-02-11T00:56:51;41.20;;;14.80;;
68523;SDS011;55524;51.380;13.372;2023-02-11T00:59:17;39.10;;;15.07;;
68523;SDS011;55524;51.380;13.372;2023-02-11T01:01:43;35.63;;;14.13;;
68523;SDS011;55524;51.380;13.372;2023-02-11T01:04:10;37.10;;;14.20;;
68523;SDS011;55524;51.380;13.372;2023-02-11T01:06:36;41.03;;;14.60;;
68523;SDS011;55524;51.380;13.372;2023-02-11T01:09:02;32.38;;;13.65;;
68523;SDS011;55524;51.380;13.372;2023-02-11T01:11:28;34.83;;;13.95;;
68523;SDS011;55524;51.380;13.372;2023-02-11T01:13:55;35.20;;;14.32;;
68523;SDS011;55524;51.380;13.372;2023-02-11T01:16:21;35.10;;;14.15;;
68523;SDS011;55524;51.380;13.372;2023-02-11T01:18:47;38.88;;;14.35;;
68523;SDS011;55524;51.380;13.372;2023-02-11T01:21:14;35.13;;;14.43;;
68523;SDS011;55524;51.380;13.372;2023-02-11T01:23:40;34.40;;;14.50;;
68523;SDS011;55524;51.380;13.372;2023-02-11T01:26:06;38.83;;;14.13;;
68523;SDS011;55524;51.380;13.372;2023-02-11T01:28:33;36.83;;;13.93;;
68523;SDS011;55524;51.380;13.372;2023-02-11T01:31:00;36.83;;;14.30;;
68523;SDS011;55524;51.380;13.372;2023-02-11T01:33:27;32.45;;;13.48;;
68523;SDS011;55524;51.380;13.372;2023-02-11T01:35:53;35.17;;;14.35;;
68523;SDS011;55524;51.380;13.372;2023-02-11T01:38:23;32.70;;;14.30;;
68523;SDS011;55524;51.380;13.372;2023-02-11T01:40:51;38.13;;;14.18;;
68523;SDS011;55524;51.380;13.372;2023-02-11T01:43:20;33.72;;;14.48;;
68523;SDS011;55524;51.380;13.372;2023-02-11T01:48:23;33.40;;;14.07;;
68523;SDS011;55524;51.380;13.372;2023-02-11T01:50:59;33.63;;;13.75;;
68523;SDS011;55524;51.380;13.372;2023-02-11T01:53:35;34.65;;;13.30;;
68523;SDS011;55524;51.380;13.372;2023-02-11T01:56:21;32.63;;;13.80;;
68523;SDS011;55524;51.380;13.372;2023-02-11T01:59:12;33.60;;;13.45;;
68523;SDS011;55524;51.380;13.372;2023-02-11T02:01:48;32.28;;;14.02;;
68523;SDS011;55524;51.380;13.372;2023-02-11T02:04:20;35.72;;;14.43;;
68523;SDS011;55524;51.380;13.372;2023-02-11T02:06:58;35.33;;;14.65;;
68523;SDS011;55524;51.380;13.372;2023-02-11T02:09:31;33.15;;;14.27;;
68523;SDS011;55524;51.380;13.372;2023-02-11T02:12:04;32.15;;;13.55;;
68523;SDS011;55524;51.380;13.372;2023-02-11T02:14:30;32.88;;;13.95;;
68523;SDS011;55524;51.380;13.372;2023-02-11T02:16:57;34.88;;;13.98;;
68523;SDS011;55524;51.380;13.372;2023-02-11T02:20:02;37.65;;;14.95;;
68523;SDS011;55524;51.380;13.372;2023-02-11T02:22:27;34.92;;;14.23;;
68523;SDS011;55524;51.380;13.372;2023-02-11T02:27:57;32.90;;;13.68;;
68523;SDS011;55524;51.380;13.372;2023-02-11T02:36:10;31.73;;;13.38;;
68523;SDS011;55524;51.380;13.372;2023-02-11T02:38:58;30.73;;;14.07;;
68523;SDS011;55524;51.380;13.372;2023-02-11T02:41:37;33.53;;;13.85;;
68523;SDS011;55524;51.380;13.372;2023-02-11T02:44:05;36.75;;;14.23;;
68523;SDS011;55524;51.380;13.372;2023-02-11T02:46:33;30.67;;;13.63;;
68523;SDS011;55524;51.380;13.372;2023-02-11T02:49:00;35.83;;;14.52;;
68523;SDS011;55524;51.380;13.372;2023-02-11T03:02:25;33.25;;;14.90;;
68523;SDS011;55524;51.380;13.372;2023-02-11T03:04:56;28.67;;;13.98;;
68523;SDS011;55524;51.380;13.372;2023-02-11T03:09:58;34.95;;;13.93;;
68523;SDS011;55524;51.380;13.372;2023-02-11T03:12:39;33.97;;;13.98;;
68523;SDS011;55524;51.380;13.372;2023-02-11T03:15:08;32.33;;;13.55;;
68523;SDS011;55524;51.380;13.372;2023-02-11T03:17:37;38.97;;;14.70;;
68523;SDS011;55524;51.380;13.372;2023-02-11T03:20:15;31.92;;;14.10;;
68523;SDS011;55524;51.380;13.372;2023-02-11T03:25:29;31.35;;;13.70;;
68523;SDS011;55524;51.380;13.372;2023-02-11T03:28:21;35.17;;;14.07;;
68523;SDS011;55524;51.380;13.372;2023-02-11T03:34:05;31.42;;;14.80;;
68523;SDS011;55524;51.380;13.372;2023-02-11T03:39:50;30.17;;;13.27;;
68523;SDS011;55524;51.380;13.372;2023-02-11T03:42:28;29.08;;;14.43;;
68523;SDS011;55524;51.380;13.372;2023-02-11T03:45:04;35.72;;;14.55;;
68523;SDS011;55524;51.380;13.372;2023-02-11T03:47:34;36.83;;;14.23;;
68523;SDS011;55524;51.380;13.372;2023-02-11T03:50:05;36.88;;;15.05;;
68523;SDS011;55524;51.380;13.372;2023-02-11T03:52:34;31.50;;;13.63;;
68523;SDS011;55524;51.380;13.372;2023-02-11T03:55:03;32.22;;;14.00;;
68523;SDS011;55524;51.380;13.372;2023-02-11T03:57:35;34.95;;;14.32;;
68523;SDS011;55524;51.380;13.372;2023-02-11T04:00:03;32.47;;;14.50;;
68523;SDS011;55524;51.380;13.372;2023-02-11T04:02:30;36.10;;;15.13;;
68523;SDS011;55524;51.380;13.372;2023-02-11T04:04:59;34.13;;;14.43;;
68523;SDS011;55524;51.380;13.372;2023-02-11T04:07:25;40.08;;;14.90;;
68523;SDS011;55524;51.380;13.372;2023-02-11T04:09:53;41.25;;;15.25;;
68523;SDS011;55524;51.380;13.372;2023-02-11T04:12:19;39.40;;;14.63;;
68523;SDS011;55524;51.380;13.372;2023-02-11T04:14:45;35.67;;;15.63;;
68523;SDS011;55524;51.380;13.372;2023-02-11T04:17:12;38.88;;;14.88;;
68523;SDS011;55524;51.380;13.372;2023-02-11T04:19:38;35.03;;;15.23;;
68523;SDS011;55524;51.380;13.372;2023-02-11T04:22:05;35.08;;;14.63;;
68523;SDS011;55524;51.380;13.372;2023-02-11T04:24:31;35.40;;;15.63;;
68523;SDS011;55524;51.380;13.372;2023-02-11T04:26:58;34.83;;;15.02;;
68523;SDS011;55524;51.380;13.372;2023-02-11T04:29:24;34.85;;;14.00;;
68523;SDS011;55524;51.380;13.372;2023-02-11T04:31:52;37.75;;;14.95;;
68523;SDS011;55524;51.380;13.372;2023-02-11T04:34:19;39.80;;;14.57;;
68523;SDS011;55524;51.380;13.372;2023-02-11T04:36:46;35.95;;;15.00;;
68523;SDS011;55524;51.380;13.372;2023-02-11T04:39:12;36.47;;;15.55;;
68523;SDS011;55524;51.380;13.372;2023-02-11T04:41:38;36.25;;;14.50;;
68523;SDS011;55524;51.380;13.372;2023-02-11T04:44:05;38.60;;;14.93;;
68523;SDS011;55524;51.380;13.372;2023-02-11T04:46:31;34.05;;;14.50;;
68523;SDS011;55524;51.380;13.372;2023-02-11T04:48:57;35.95;;;15.02;;
68523;SDS011;55524;51.380;13.372;2023-02-11T04:51:24;35.33;;;15.00;;
68523;SDS011;55524;51.380;13.372;2023-02-11T04:53:50;34.47;;;14.93;;
68523;SDS011;55524;51.380;13.372;2023-02-11T04:56:16;35.63;;;14.50;;
68523;SDS011;55524;51.380;13.372;2023-02-11T04:58:43;40.05;;;14.95;;
68523;SDS011;55524;51.380;13.372;2023-02-11T05:01:10;38.20;;;16.05;;
68523;SDS011;55524;51.380;13.372;2023-02-11T05:03:39;38.00;;;14.98;;
68523;SDS011;55524;51.380;13.372;2023-02-11T05:06:06;36.05;;;15.88;;
68523;SDS011;55524;51.380;13.372;2023-02-11T05:08:33;39.35;;;15.20;;
68523;SDS011;55524;51.380;13.372;2023-02-11T05:10:59;39.28;;;14.85;;
68523;SDS011;55524;51.380;13.372;2023-02-11T05:13:28;39.35;;;15.75;;
68523;SDS011;55524;51.380;13.372;2023-02-11T05:15:55;39.45;;;15.90;;
68523;SDS011;55524;51.380;13.372;2023-02-11T05:18:22;41.28;;;15.18;;
68523;SDS011;55524;51.380;13.372;2023-02-11T05:20:49;35.90;;;15.75;;
68523;SDS011;55524;51.380;13.372;2023-02-11T05:23:15;34.30;;;14.98;;
68523;SDS011;55524;51.380;13.372;2023-02-11T05:25:41;37.92;;;14.90;;
68523;SDS011;55524;51.380;13.372;2023-02-11T05:28:07;34.80;;;15.75;;
68523;SDS011;55524;51.380;13.372;2023-02-11T05:30:34;41.72;;;16.55;;
68523;SDS011;55524;51.380;13.372;2023-02-11T05:33:00;44.03;;;16.10;;
68523;SDS011;55524;51.380;13.372;2023-02-11T05:35:26;38.85;;;16.10;;
68523;SDS011;55524;51.380;13.372;2023-02-11T05:37:52;37.72;;;15.90;;
68523;SDS011;55524;51.380;13.372;2023-02-11T05:40:19;43.35;;;16.00;;
68523;SDS011;55524;51.380;13.372;2023-02-11T05:42:45;45.25;;;17.33;;
68523;SDS011;55524;51.380;13.372;2023-02-11T05:45:11;40.72;;;16.13;;
68523;SDS011;55524;51.380;13.372;2023-02-11T05:47:37;34.67;;;15.30;;
68523;SDS011;55524;51.380;13.372;2023-02-11T05:50:04;44.58;;;17.25;;
68523;SDS011;55524;51.380;13.372;2023-02-11T05:52:30;40.40;;;16.67;;
68523;SDS011;55524;51.380;13.372;2023-02-11T05:54:57;40.35;;;16.05;;
68523;SDS011;55524;51.380;13.372;2023-02-11T05:57:23;42.22;;;16.83;;
68523;SDS011;55524;51.380;13.372;2023-02-11T05:59:49;37.75;;;15.40;;
68523;SDS011;55524;51.380;13.372;2023-02-11T06:02:15;38.83;;;15.98;;
68523;SDS011;55524;51.380;13.372;2023-02-11T06:04:42;40.58;;;16.27;;
68523;SDS011;55524;51.380;13.372;2023-02-11T06:07:08;40.97;;;15.43;;
68523;SDS011;55524;51.380;13.372;2023-02-11T06:09:35;36.00;;;15.23;;
68523;SDS011;55524;51.380;13.372;2023-02-11T06:12:01;34.00;;;15.05;;
68523;SDS011;55524;51.380;13.372;2023-02-11T06:14:28;35.22;;;15.32;;
68523;SDS011;55524;51.380;13.372;2023-02-11T06:16:56;35.85;;;15.30;;
68523;SDS011;55524;51.380;13.372;2023-02-11T06:19:22;39.25;;;16.05;;
68523;SDS011;55524;51.380;13.372;2023-02-11T06:21:48;35.63;;;14.88;;
68523;SDS011;55524;51.380;13.372;2023-02-11T06:24:16;39.67;;;15.95;;
68523;SDS011;55524;51.380;13.372;2023-02-11T06:26:42;36.15;;;14.88;;
68523;SDS011;55524;51.380;13.372;2023-02-11T06:29:09;41.03;;;16.13;;
68523;SDS011;55524;51.380;13.372;2023-02-11T06:31:35;36.33;;;14.40;;
68523;SDS011;55524;51.380;13.372;2023-02-11T06:34:02;42.03;;;14.27;;
68523;SDS011;55524;51.380;13.372;2023-02-11T06:36:29;32.95;;;14.15;;
68523;SDS011;55524;51.380;13.372;2023-02-11T06:38:55;36.05;;;14.35;;
68523;SDS011;55524;51.380;13.372;2023-02-11T06:41:22;38.35;;;14.25;;
68523;SDS011;55524;51.380;13.372;2023-02-11T06:43:48;28.77;;;13.50;;
68523;SDS011;55524;51.380;13.372;2023-02-11T06:46:16;38.00;;;15.65;;
68523;SDS011;55524;51.380;13.372;2023-02-11T06:48:42;35.67;;;14.80;;
68523;SDS011;55524;51.380;13.372;2023-02-11T06:51:09;36.88;;;15.52;;
68523;SDS011;55524;51.380;13.372;2023-02-11T06:53:38;35.00;;;14.23;;
68523;SDS011;55524;51.380;13.372;2023-02-11T06:56:18;35.97;;;14.82;;
68523;SDS011;55524;51.380;13.372;2023-02-11T06:58:46;38.85;;;15.07;;
68523;SDS011;55524;51.380;13.372;2023-02-11T07:01:13;32.35;;;14.00;;
68523;SDS011;55524;51.380;13.372;2023-02-11T07:03:41;34.10;;;14.05;;
68523;SDS011;55524;51.380;13.372;2023-02-11T07:06:10;33.55;;;14.05;;
68523;SDS011;55524;51.380;13.372;2023-02-11T07:08:39;33.13;;;14.40;;
68523;SDS011;55524;51.380;13.372;2023-02-11T07:13:37;32.90;;;14.52;;
68523;SDS011;55524;51.380;13.372;2023-02-11T07:16:08;35.88;;;15.05;;
68523;SDS011;55524;51.380;13.372;2023-02-11T07:18:36;36.92;;;14.75;;
68523;SDS011;55524;51.380;13.372;2023-02-11T07:21:03;36.83;;;15.55;;
68523;SDS011;55524;51.380;13.372;2023-02-11T07:23:31;38.05;;;15.15;;
68523;SDS011;55524;51.380;13.372;2023-02-11T07:25:57;37.95;;;15.55;;
68523;SDS011;55524;51.380;13.372;2023-02-11T07:28:28;39.72;;;14.98;;
68523;SDS011;55524;51.380;13.372;2023-02-11T07:30:54;35.10;;;14.68;;
68523;SDS011;55524;51.380;13.372;2023-02-11T07:33:21;33.28;;;13.93;;
68523;SDS011;55524;51.380;13.372;2023-02-11T07:35:47;33.10;;;14.38;;
68523;SDS011;55524;51.380;13.372;2023-02-11T07:38:14;34.78;;;14.35;;
68523;SDS011;55524;51.380;13.372;2023-02-11T07:40:40;37.85;;;14.57;;
68523;SDS011;55524;51.380;13.372;2023-02-11T07:43:06;36.45;;;14.18;;
68523;SDS011;55524;51.380;13.372;2023-02-11T07:45:33;35.60;;;13.48;;
68523;SDS011;55524;51.380;13.372;2023-02-11T07:48:02;36.90;;;14.85;;
68523;SDS011;55524;51.380;13.372;2023-02-11T07:50:28;34.03;;;14.18;;
68523;SDS011;55524;51.380;13.372;2023-02-11T07:52:54;33.85;;;14.00;;
68523;SDS011;55524;51.380;13.372;2023-02-11T07:55:21;35.10;;;13.40;;
68523;SDS011;55524;51.380;13.372;2023-02-11T07:57:47;35.83;;;14.60;;
68523;SDS011;55524;51.380;13.372;2023-02-11T08:00:14;32.70;;;13.15;;
68523;SDS011;55524;51.380;13.372;2023-02-11T08:02:41;35.88;;;13.52;;
68523;SDS011;55524;51.380;13.372;2023-02-11T08:05:07;36.95;;;14.57;;
68523;SDS011;55524;51.380;13.372;2023-02-11T08:07:34;33.67;;;13.88;;
68523;SDS011;55524;51.380;13.372;2023-02-11T08:10:00;38.63;;;14.43;;
68523;SDS011;55524;51.380;13.372;2023-02-11T08:12:26;34.10;;;14.48;;
68523;SDS011;55524;51.380;13.372;2023-02-11T08:14:53;38.20;;;14.88;;
68523;SDS011;55524;51.380;13.372;2023-02-11T08:17:20;38.08;;;14.43;;
68523;SDS011;55524;51.380;13.372;2023-02-11T08:19:46;34.05;;;14.27;;
68523;SDS011;55524;51.380;13.372;2023-02-11T08:22:12;41.95;;;15.35;;
68523;SDS011;55524;51.380;13.372;2023-02-11T08:24:39;38.00;;;15.00;;
68523;SDS011;55524;51.380;13.372;2023-02-11T08:27:05;32.63;;;15.10;;
68523;SDS011;55524;51.380;13.372;2023-02-11T08:29:31;31.95;;;13.90;;
68523;SDS011;55524;51.380;13.372;2023-02-11T08:31:58;36.83;;;14.93;;
68523;SDS011;55524;51.380;13.372;2023-02-11T08:34:24;33.55;;;14.10;;
68523;SDS011;55524;51.380;13.372;2023-02-11T08:36:50;31.77;;;14.45;;
68523;SDS011;55524;51.380;13.372;2023-02-11T08:39:17;32.92;;;14.48;;
68523;SDS011;55524;51.380;13.372;2023-02-11T08:41:46;28.27;;;12.82;;
68523;SDS011;55524;51.380;13.372;2023-02-11T08:44:15;35.28;;;14.20;;
68523;SDS011;55524;51.380;13.372;2023-02-11T08:46:42;42.72;;;15.55;;
68523;SDS011;55524;51.380;13.372;2023-02-11T08:49:08;36.17;;;14.65;;
68523;SDS011;55524;51.380;13.372;2023-02-11T08:51:35;37.80;;;14.98;;
68523;SDS011;55524;51.380;13.372;2023-02-11T08:54:01;32.55;;;13.90;;
68523;SDS011;55524;51.380;13.372;2023-02-11T08:56:28;34.67;;;14.40;;
68523;SDS011;55524;51.380;13.372;2023-02-11T08:58:56;38.58;;;15.35;;
68523;SDS011;55524;51.380;13.372;2023-02-11T09:01:23;41.03;;;16.08;;
68523;SDS011;55524;51.380;13.372;2023-02-11T09:03:51;30.75;;;13.82;;
68523;SDS011;55524;51.380;13.372;2023-02-11T09:06:18;39.67;;;14.65;;
68523;SDS011;55524;51.380;13.372;2023-02-11T09:08:47;34.50;;;14.10;;
68523;SDS011;55524;51.380;13.372;2023-02-11T09:11:15;41.78;;;14.00;;
68523;SDS011;55524;51.380;13.372;2023-02-11T09:13:43;35.83;;;13.50;;
68523;SDS011;55524;51.380;13.372;2023-02-11T09:16:17;37.47;;;14.30;;
68523;SDS011;55524;51.380;13.372;2023-02-11T09:18:46;34.50;;;14.02;;
68523;SDS011;55524;51.380;13.372;2023-02-11T09:21:13;33.42;;;14.15;;
68523;SDS011;55524;51.380;13.372;2023-02-11T09:23:41;31.25;;;13.80;;
68523;SDS011;55524;51.380;13.372;2023-02-11T09:26:13;39.55;;;15.02;;
68523;SDS011;55524;51.380;13.372;2023-02-11T09:28:41;32.45;;;14.18;;
68523;SDS011;55524;51.380;13.372;2023-02-11T09:31:09;31.00;;;13.70;;
68523;SDS011;55524;51.380;13.372;2023-02-11T09:33:38;32.70;;;13.85;;
68523;SDS011;55524;51.380;13.372;2023-02-11T09:36:12;38.88;;;14.88;;
68523;SDS011;55524;51.380;13.372;2023-02-11T09:38:59;33.83;;;13.60;;
68523;SDS011;55524;51.380;13.372;2023-02-11T09:44:17;34.58;;;14.95;;
68523;SDS011;55524;51.380;13.372;2023-02-11T09:46:57;34.88;;;15.43;;
68523;SDS011;55524;51.380;13.372;2023-02-11T09:49:29;34.90;;;14.82;;
68523;SDS011;55524;51.380;13.372;2023-02-11T09:52:07;37.90;;;14.98;;
68523;SDS011;55524;51.380;13.372;2023-02-11T09:54:58;35.63;;;15.60;;
68523;SDS011;55524;51.380;13.372;2023-02-11T09:57:37;39.95;;;14.57;;
68523;SDS011;55524;51.380;13.372;2023-02-11T10:00:23;54.88;;;15.32;;
68523;SDS011;55524;51.380;13.372;2023-02-11T10:02:59;35.72;;;15.38;;
68523;SDS011;55524;51.380;13.372;2023-02-11T10:24:27;30.17;;;14.20;;
68523;SDS011;55524;51.380;13.372;2023-02-11T10:26:54;28.13;;;13.60;;
68523;SDS011;55524;51.380;13.372;2023-02-11T10:31:55;34.40;;;14.77;;
68523;SDS011;55524;51.380;13.372;2023-02-11T10:34:23;33.47;;;14.88;;
68523;SDS011;55524;51.380;13.372;2023-02-11T10:36:49;37.03;;;15.27;;
68523;SDS011;55524;51.380;13.372;2023-02-11T10:39:17;39.33;;;14.93;;
68523;SDS011;55524;51.380;13.372;2023-02-11T10:41:52;32.75;;;14.32;;
68523;SDS011;55524;51.380;13.372;2023-02-11T10:44:41;32.20;;;14.63;;
68523;SDS011;55524;51.380;13.372;2023-02-11T10:47:31;32.25;;;14.18;;
68523;SDS011;55524;51.380;13.372;2023-02-11T10:50:05;34.35;;;13.90;;
68523;SDS011;55524;51.380;13.372;2023-02-11T10:52:54;36.75;;;14.43;;
68523;SDS011;55524;51.380;13.372;2023-02-11T10:55:47;33.85;;;13.93;;
68523;SDS011;55524;51.380;13.372;2023-02-11T10:58:23;32.28;;;14.40;;
68523;SDS011;55524;51.380;13.372;2023-02-11T11:00:53;30.42;;;14.15;;
68523;SDS011;55524;51.380;13.372;2023-02-11T11:03:35;33.10;;;13.27;;
68523;SDS011;55524;51.380;13.372;2023-02-11T11:06:11;35.05;;;14.73;;
68523;SDS011;55524;51.380;13.372;2023-02-11T11:08:38;32.60;;;13.75;;
68523;SDS011;55524;51.380;13.372;2023-02-11T11:11:09;33.90;;;14.55;;
68523;SDS011;55524;51.380;13.372;2023-02-11T11:13:53;30.77;;;14.00;;
68523;SDS011;55524;51.380;13.372;2023-02-11T11:18:53;33.45;;;14.15;;
68523;SDS011;55524;51.380;13.372;2023-02-11T11:26:58;31.98;;;13.23;;
68523;SDS011;55524;51.380;13.372;2023-02-11T11:29:33;34.90;;;14.68;;
68523;SDS011;55524;51.380;13.372;2023-02-11T11:34:43;36.08;;;14.63;;
68523;SDS011;55524;51.380;13.372;2023-02-11T11:42:39;29.38;;;13.10;;
68523;SDS011;55524;51.380;13.372;2023-02-11T11:47:46;36.95;;;14.35;;
68523;SDS011;55524;51.380;13.372;2023-02-11T11:50:42;29.83;;;13.88;;
68523;SDS011;55524;51.380;13.372;2023-02-11T11:56:02;38.17;;;14.48;;
68523;SDS011;55524;51.380;13.372;2023-02-11T11:58:40;32.50;;;14.18;;
68523;SDS011;55524;51.380;13.372;2023-02-11T12:40:03;29.92;;;12.88;;
68523;SDS011;55524;51.380;13.372;2023-02-11T12:45:47;28.98;;;12.63;;
68523;SDS011;55524;51.380;13.372;2023-02-11T12:48:52;31.67;;;13.13;;
68523;SDS011;55524;51.380;13.372;2023-02-11T12:51:23;34.97;;;13.77;;
68523;SDS011;55524;51.380;13.372;2023-02-11T12:56:51;33.03;;;13.90;;
68523;SDS011;55524;51.380;13.372;2023-02-11T13:01:55;31.05;;;13.30;;
68523;SDS011;55524;51.380;13.372;2023-02-11T13:04:27;29.30;;;13.55;;
68523;SDS011;55524;51.380;13.372;2023-02-11T13:07:02;33.95;;;13.05;;
68523;SDS011;55524;51.380;13.372;2023-02-11T13:12:23;29.30;;;13.15;;
68523;SDS011;55524;51.380;13.372;2023-02-11T13:15:12;29.50;;;12.63;;
68523;SDS011;55524;51.380;13.372;2023-02-11T13:17:51;28.40;;;13.27;;
68523;SDS011;55524;51.380;13.372;2023-02-11T13:26:15;29.67;;;13.93;;
68523;SDS011;55524;51.380;13.372;2023-02-11T13:31:55;28.67;;;12.77;;
68523;SDS011;55524;51.380;13.372;2023-02-11T13:37:22;23.58;;;11.55;;
68523;SDS011;55524;51.380;13.372;2023-02-11T13:42:57;28.77;;;12.82;;
68523;SDS011;55524;51.380;13.372;2023-02-11T13:47:58;27.50;;;12.68;;
68523;SDS011;55524;51.380;13.372;2023-02-11T13:50:28;25.92;;;12.80;;
68523;SDS011;55524;51.380;13.372;2023-02-11T13:53:02;35.53;;;15.05;;
68523;SDS011;55524;51.380;13.372;2023-02-11T13:55:30;29.17;;;13.35;;
68523;SDS011;55524;51.380;13.372;2023-02-11T14:14:14;28.25;;;12.75;;
68523;SDS011;55524;51.380;13.372;2023-02-11T14:17:29;27.92;;;13.38;;
68523;SDS011;55524;51.380;13.372;2023-02-11T14:22:04;33.28;;;13.38;;
68523;SDS011;55524;51.380;13.372;2023-02-11T14:27:07;27.92;;;13.55;;
68523;SDS011;55524;51.380;13.372;2023-02-11T14:30:02;29.90;;;13.20;;
68523;SDS011;55524;51.380;13.372;2023-02-11T14:33:13;30.98;;;13.50;;
68523;SDS011;55524;51.380;13.372;2023-02-11T14:36:00;28.05;;;12.00;;
68523;SDS011;55524;51.380;13.372;2023-02-11T14:39:10;31.35;;;13.88;;
68523;SDS011;55524;51.380;13.372;2023-02-11T14:41:34;31.65;;;12.52;;
68523;SDS011;55524;51.380;13.372;2023-02-11T14:44:07;28.80;;;12.77;;
68523;SDS011;55524;51.380;13.372;2023-02-11T14:46:46;33.45;;;13.43;;
68523;SDS011;55524;51.380;13.372;2023-02-11T14:49:31;32.33;;;14.75;;
68523;SDS011;55524;51.380;13.372;2023-02-11T14:52:14;30.50;;;13.23;;
68523;SDS011;55524;51.380;13.372;2023-02-11T14:54:44;27.50;;;12.38;;
68523;SDS011;55524;51.380;13.372;2023-02-11T14:57:16;31.40;;;12.80;;
68523;SDS011;55524;51.380;13.372;2023-02-11T15:02:37;26.77;;;11.85;;
68523;SDS011;55524;51.380;13.372;2023-02-11T15:05:23;30.77;;;13.80;;
68523;SDS011;55524;51.380;13.372;2023-02-11T15:07:53;31.08;;;13.65;;
68523;SDS011;55524;51.380;13.372;2023-02-11T15:10:34;28.73;;;13.18;;
68523;SDS011;55524;51.380;13.372;2023-02-11T15:15:33;28.67;;;12.93;;
68523;SDS011;55524;51.380;13.372;2023-02-11T15:18:01;35.22;;;14.15;;
68523;SDS011;55524;51.380;13.372;2023-02-11T15:20:30;32.47;;;12.73;;
68523;SDS011;55524;51.380;13.372;2023-02-11T15:22:58;26.83;;;13.60;;
68523;SDS011;55524;51.380;13.372;2023-02-11T15:25:27;29.85;;;13.15;;
68523;SDS011;55524;51.380;13.372;2023-02-11T15:27:55;28.33;;;13.48;;
68523;SDS011;55524;51.380;13.372;2023-02-11T15:32:51;35.67;;;14.75;;
68523;SDS011;55524;51.380;13.372;2023-02-11T15:35:39;28.30;;;12.43;;
68523;SDS011;55524;51.380;13.372;2023-02-11T15:38:08;25.90;;;13.02;;
68523;SDS011;55524;51.380;13.372;2023-02-11T15:40:37;28.97;;;13.63;;
68523;SDS011;55524;51.380;13.372;2023-02-11T15:43:08;27.70;;;13.73;;
68523;SDS011;55524;51.380;13.372;2023-02-11T15:48:07;31.17;;;14.15;;
68523;SDS011;55524;51.380;13.372;2023-02-11T15:50:47;28.88;;;13.40;;
68523;SDS011;55524;51.380;13.372;2023-02-11T15:58:50;27.60;;;12.68;;
68523;SDS011;55524;51.380;13.372;2023-02-11T16:01:27;27.70;;;13.32;;
68523;SDS011;55524;51.380;13.372;2023-02-11T16:03:58;28.17;;;13.95;;
68523;SDS011;55524;51.380;13.372;2023-02-11T16:06:25;31.25;;;13.40;;
68523;SDS011;55524;51.380;13.372;2023-02-11T16:09:29;25.63;;;13.25;;
68523;SDS011;55524;51.380;13.372;2023-02-11T16:12:01;29.65;;;13.85;;
68523;SDS011;55524;51.380;13.372;2023-02-11T16:19:29;30.80;;;14.18;;
68523;SDS011;55524;51.380;13.372;2023-02-11T16:21:58;31.90;;;14.35;;
68523;SDS011;55524;51.380;13.372;2023-02-11T16:24:27;32.40;;;14.40;;
68523;SDS011;55524;51.380;13.372;2023-02-11T16:27:13;32.30;;;14.33;;
68523;SDS011;55524;51.380;13.372;2023-02-11T16:29:54;27.95;;;13.63;;
68523;SDS011;55524;51.380;13.372;2023-02-11T16:32:23;31.85;;;13.50;;
68523;SDS011;55524;51.380;13.372;2023-02-11T16:37:22;30.65;;;13.05;;
68523;SDS011;55524;51.380;13.372;2023-02-11T16:39:49;29.38;;;14.05;;
68523;SDS011;55524;51.380;13.372;2023-02-11T16:42:19;31.80;;;13.68;;
68523;SDS011;55524;51.380;13.372;2023-02-11T16:44:45;32.63;;;12.98;;
68523;SDS011;55524;51.380;13.372;2023-02-11T16:47:24;32.38;;;13.75;;
68523;SDS011;55524;51.380;13.372;2023-02-11T16:49:52;33.53;;;13.60;;
68523;SDS011;55524;51.380;13.372;2023-02-11T16:52:20;37.80;;;13.82;;
68523;SDS011;55524;51.380;13.372;2023-02-11T16:54:47;35.63;;;13.45;;
68523;SDS011;55524;51.380;13.372;2023-02-11T16:57:17;28.88;;;13.23;;
68523;SDS011;55524;51.380;13.372;2023-02-11T16:59:46;28.58;;;13.07;;
68523;SDS011;55524;51.380;13.372;2023-02-11T17:02:19;34.85;;;14.63;;
68523;SDS011;55524;51.380;13.372;2023-02-11T17:04:54;33.83;;;13.32;;
68523;SDS011;55524;51.380;13.372;2023-02-11T17:09:58;33.95;;;14.32;;
68523;SDS011;55524;51.380;13.372;2023-02-11T17:12:24;33.53;;;15.40;;
68523;SDS011;55524;51.380;13.372;2023-02-11T17:14:51;32.20;;;14.40;;
68523;SDS011;55524;51.380;13.372;2023-02-11T17:17:18;38.83;;;15.80;;
68523;SDS011;55524;51.380;13.372;2023-02-11T17:19:46;42.75;;;15.90;;
68523;SDS011;55524;51.380;13.372;2023-02-11T17:22:13;37.38;;;14.93;;
68523;SDS011;55524;51.380;13.372;2023-02-11T17:24:39;35.50;;;15.63;;
68523;SDS011;55524;51.380;13.372;2023-02-11T17:27:05;35.22;;;15.40;;
68523;SDS011;55524;51.380;13.372;2023-02-11T17:29:31;37.80;;;15.50;;
68523;SDS011;55524;51.380;13.372;2023-02-11T17:31:57;36.15;;;15.45;;
68523;SDS011;55524;51.380;13.372;2023-02-11T17:34:24;36.38;;;15.07;;
68523;SDS011;55524;51.380;13.372;2023-02-11T17:36:53;37.47;;;14.82;;
68523;SDS011;55524;51.380;13.372;2023-02-11T17:39:19;36.33;;;15.25;;
68523;SDS011;55524;51.380;13.372;2023-02-11T17:41:45;37.55;;;15.23;;
68523;SDS011;55524;51.380;13.372;2023-02-11T17:44:12;40.65;;;15.65;;